Time;durP1;ratioP1;P1;durP2;ratioP2;P2;SDS_P1;SDS_P2;PMS_P1;PMS_P2;Temp;Humidity;BMP_temperature;BMP_pressure;BME280_temperature;BME280_humidity;BME280_pressure;Samples;Min_cycle;Max_cycle;Signal;HPM_P1;HPM_P2
2022/01/20 00:02:27;;;;;;;25.23;11.50;;;3.60;70.50;;;;;;5076555;28;20752;-74
2022/01/20 00:05:09;;;;;;;25.10;10.87;;;3.50;69.90;;;;;;5083304;28;20188;-75
2022/01/20 00:07:48;;;;;;;21.90;10.83;;;3.50;70.00;;;;;;5075394;28;20210;-75
2022/01/20 00:27:06;;;;;;;29.73;11.47;;;3.30;70.00;;;;;;5069854;28;20213;-76
2022/01/20 00:29:58;;;;;;;27.07;11.40;;;3.30;70.10;;;;;;5073285;28;20189;-74
2022/01/20 00:32:28;;;;;;;29.27;11.33;;;3.30;70.20;;;;;;5075570;28;20276;-74
2022/01/20 00:35:16;;;;;;;26.63;11.23;;;3.20;70.40;;;;;;5077612;28;20226;-74
2022/01/20 00:37:44;;;;;;;20.97;10.73;;;3.20;70.70;;;;;;5081267;28;20777;-74
2022/01/20 00:40:13;;;;;;;25.30;10.60;;;3.20;70.70;;;;;;5082478;28;20193;-74
2022/01/20 00:42:43;;;;;;;25.23;10.40;;;3.10;70.90;;;;;;5074951;28;20668;-74
2022/01/20 00:45:12;;;;;;;22.27;11.40;;;3.10;71.00;;;;;;5076398;28;20198;-74
2022/01/20 00:47:40;;;;;;;27.20;11.80;;;3.10;71.10;;;;;;5080844;28;20221;-74
2022/01/20 00:50:11;;;;;;;22.57;11.10;;;3.00;71.00;;;;;;5079369;28;20258;-75
2022/01/20 00:52:39;;;;;;;21.47;10.10;;;3.00;71.10;;;;;;5074602;28;20195;-75
2022/01/20 00:55:08;;;;;;;25.03;10.77;;;3.00;71.20;;;;;;5080116;28;20209;-74
2022/01/20 00:57:37;;;;;;;25.87;11.73;;;3.00;71.20;;;;;;5076378;28;20190;-75
2022/01/20 01:00:10;;;;;;;21.40;10.00;;;3.00;71.30;;;;;;5071850;28;20452;-74
2022/01/20 01:02:40;;;;;;;23.70;10.17;;;2.90;71.60;;;;;;5078924;28;20816;-74
2022/01/20 01:05:10;;;;;;;21.33;11.33;;;2.90;71.70;;;;;;5080024;28;20807;-74
2022/01/20 01:07:49;;;;;;;23.93;10.40;;;2.90;71.70;;;;;;5078344;28;20636;-74
2022/01/20 01:10:23;;;;;;;25.27;10.70;;;2.90;71.90;;;;;;5083468;28;20201;-74
2022/01/20 01:12:55;;;;;;;23.43;10.57;;;2.80;71.80;;;;;;5082678;28;20194;-74
2022/01/20 01:15:30;;;;;;;22.53;11.30;;;2.80;72.00;;;;;;5077639;28;20210;-74
2022/01/20 01:21:11;;;;;;;19.10;10.33;;;2.70;72.70;;;;;;5076456;28;20197;-74
2022/01/20 01:23:41;;;;;;;22.23;10.13;;;2.60;72.80;;;;;;5078609;28;20243;-74
2022/01/20 01:26:11;;;;;;;19.10;9.73;;;2.60;72.70;;;;;;5079765;28;20189;-74
2022/01/20 01:28:41;;;;;;;26.60;10.47;;;2.60;72.80;;;;;;5072670;28;20214;-74
2022/01/20 01:34:00;;;;;;;20.67;9.30;;;2.50;73.10;;;;;;5071773;28;20290;-74
2022/01/20 01:36:33;;;;;;;20.20;10.37;;;2.50;73.10;;;;;;5078246;28;20784;-74
2022/01/20 01:39:01;;;;;;;21.83;10.97;;;2.50;73.00;;;;;;5079761;28;20217;-74
2022/01/20 01:41:33;;;;;;;17.47;10.13;;;2.40;73.20;;;;;;5080997;28;20784;-74
2022/01/20 01:44:06;;;;;;;26.70;11.50;;;2.40;73.30;;;;;;5080511;28;20547;-74
2022/01/20 01:46:43;;;;;;;23.77;10.67;;;2.40;73.40;;;;;;5077136;28;22136;-74
2022/01/20 01:49:12;;;;;;;22.00;10.33;;;2.40;73.50;;;;;;5077960;28;20204;-74
2022/01/20 01:51:40;;;;;;;25.63;10.67;;;2.30;73.60;;;;;;5081559;28;20671;-74
2022/01/20 01:54:09;;;;;;;25.20;11.43;;;2.30;73.70;;;;;;5075887;28;20198;-74
2022/01/20 01:56:37;;;;;;;26.23;11.53;;;2.30;74.00;;;;;;5070636;28;20191;-74
2022/01/20 01:59:06;;;;;;;23.30;10.40;;;2.30;74.20;;;;;;5081348;28;20187;-75
2022/01/20 02:01:37;;;;;;;23.70;11.50;;;2.30;74.30;;;;;;5074016;28;20588;-74
2022/01/20 02:04:14;;;;;;;25.73;10.53;;;2.20;74.60;;;;;;5074564;28;20201;-74
2022/01/20 02:07:15;;;;;;;26.40;11.33;;;2.20;74.30;;;;;;5078368;28;20191;-74
2022/01/20 02:18:35;;;;;;;33.83;11.67;;;2.10;74.90;;;;;;5081912;28;20830;-74
2022/01/20 02:21:04;;;;;;;21.63;10.40;;;2.10;74.90;;;;;;5078090;28;20597;-74
2022/01/20 02:23:33;;;;;;;23.20;11.40;;;2.10;75.00;;;;;;5081183;28;20685;-74
2022/01/20 02:26:02;;;;;;;19.80;10.60;;;2.00;75.10;;;;;;5078719;28;20205;-74
2022/01/20 02:28:30;;;;;;;25.10;12.60;;;2.00;75.30;;;;;;5070961;28;20217;-74
2022/01/20 02:30:59;;;;;;;22.87;12.40;;;2.00;75.30;;;;;;5068500;28;20194;-74
2022/01/20 02:33:29;;;;;;;26.47;12.10;;;1.90;75.40;;;;;;5073935;28;20517;-74
2022/01/20 02:36:02;;;;;;;27.30;12.00;;;1.90;75.70;;;;;;5077243;28;20221;-74
2022/01/20 02:38:36;;;;;;;23.57;11.10;;;1.90;75.60;;;;;;5080247;28;20220;-73
2022/01/20 02:46:39;;;;;;;31.27;12.17;;;1.80;76.30;;;;;;5071185;28;20221;-74
2022/01/20 02:49:08;;;;;;;25.03;12.07;;;1.70;76.40;;;;;;5075812;28;20226;-73
2022/01/20 02:51:37;;;;;;;25.77;11.80;;;1.70;76.80;;;;;;5075865;28;20233;-74
2022/01/20 02:54:10;;;;;;;25.30;11.20;;;1.60;77.20;;;;;;5076560;28;20806;-74
2022/01/20 02:56:38;;;;;;;26.87;12.67;;;1.60;77.50;;;;;;5084992;28;20198;-74
2022/01/20 02:59:06;;;;;;;24.47;11.20;;;1.50;77.40;;;;;;5074189;28;20913;-74
2022/01/20 03:01:35;;;;;;;24.23;11.13;;;1.50;77.60;;;;;;5078273;28;20201;-75
2022/01/20 03:04:04;;;;;;;29.43;12.47;;;1.50;77.70;;;;;;5077491;28;20212;-74
2022/01/20 03:06:32;;;;;;;24.03;11.43;;;1.50;77.80;;;;;;5082512;28;20193;-74
2022/01/20 03:09:00;;;;;;;27.50;11.30;;;1.50;77.70;;;;;;5084673;28;20236;-73
2022/01/20 03:11:30;;;;;;;28.77;10.93;;;1.40;77.90;;;;;;5078753;28;20197;-73
2022/01/20 03:13:58;;;;;;;23.37;12.20;;;1.40;77.90;;;;;;5075699;28;20194;-73
2022/01/20 03:16:26;;;;;;;22.10;11.23;;;1.30;78.20;;;;;;5085033;28;20217;-73
2022/01/20 03:18:55;;;;;;;28.77;11.77;;;1.40;78.00;;;;;;5082616;28;20343;-73
2022/01/20 03:21:23;;;;;;;20.27;10.07;;;1.40;78.20;;;;;;5084288;28;20223;-73
2022/01/20 03:23:51;;;;;;;24.07;11.20;;;1.40;78.30;;;;;;5081334;28;20196;-74
2022/01/20 03:26:20;;;;;;;27.13;11.53;;;1.40;78.20;;;;;;5080173;28;20253;-73
2022/01/20 03:28:50;;;;;;;27.73;10.77;;;1.40;78.30;;;;;;5076502;28;20221;-73
2022/01/20 03:31:19;;;;;;;25.57;10.50;;;1.40;78.20;;;;;;5080504;28;20189;-73
2022/01/20 03:33:47;;;;;;;22.17;10.40;;;1.40;78.30;;;;;;5082273;28;20855;-73
2022/01/20 03:36:15;;;;;;;28.27;11.23;;;1.40;78.30;;;;;;5074746;28;20229;-74
2022/01/20 03:38:44;;;;;;;25.83;11.47;;;1.40;78.30;;;;;;5078623;28;20755;-73
2022/01/20 03:41:14;;;;;;;29.65;13.43;;;1.30;78.50;;;;;;5080375;28;20430;-73
2022/01/20 03:43:43;;;;;;;26.97;11.23;;;1.40;78.60;;;;;;5079839;28;20196;-73
2022/01/20 03:46:13;;;;;;;28.07;11.90;;;1.40;78.70;;;;;;5081476;28;20193;-73
2022/01/20 03:48:49;;;;;;;25.50;11.07;;;1.40;78.90;;;;;;5082483;28;20244;-73
2022/01/20 03:51:21;;;;;;;23.83;10.17;;;1.40;78.80;;;;;;5075455;28;20263;-74
2022/01/20 03:53:51;;;;;;;26.77;11.07;;;1.40;78.80;;;;;;5081341;28;20191;-74
2022/01/20 03:56:20;;;;;;;25.87;11.83;;;1.40;78.90;;;;;;5077951;28;20197;-74
2022/01/20 03:58:50;;;;;;;20.70;11.10;;;1.40;78.70;;;;;;5083610;28;20197;-73
2022/01/20 04:01:21;;;;;;;22.90;10.30;;;1.50;78.50;;;;;;5080774;28;20657;-74
2022/01/20 04:03:49;;;;;;;21.80;11.27;;;1.50;78.30;;;;;;5078874;28;20284;-73
2022/01/20 04:06:18;;;;;;;27.63;11.70;;;1.50;78.30;;;;;;5080530;28;20330;-74
2022/01/20 04:08:48;;;;;;;22.40;11.30;;;1.50;78.30;;;;;;5082384;28;20225;-73
2022/01/20 04:11:19;;;;;;;25.27;11.37;;;1.50;78.40;;;;;;5080609;28;20199;-73
2022/01/20 04:13:47;;;;;;;33.83;12.87;;;1.50;78.40;;;;;;5082143;28;20190;-73
2022/01/20 04:16:20;;;;;;;23.33;11.63;;;1.50;78.30;;;;;;5076807;28;20631;-73
2022/01/20 04:18:56;;;;;;;26.37;12.30;;;1.50;78.40;;;;;;5080191;28;20200;-73
2022/01/20 04:21:27;;;;;;;28.53;12.00;;;1.50;78.30;;;;;;5083161;28;20242;-73
2022/01/20 04:23:56;;;;;;;28.17;10.77;;;1.50;78.40;;;;;;5083906;28;20197;-73
2022/01/20 04:26:26;;;;;;;35.33;13.03;;;1.50;78.20;;;;;;5080355;28;20206;-74
2022/01/20 04:28:56;;;;;;;25.27;11.90;;;1.60;78.30;;;;;;5080902;28;20252;-74
2022/01/20 04:31:25;;;;;;;25.60;12.30;;;1.60;78.50;;;;;;5081325;28;20210;-73
2022/01/20 04:33:56;;;;;;;29.30;12.07;;;1.60;78.30;;;;;;5074068;28;20663;-73
2022/01/20 04:36:25;;;;;;;24.47;11.97;;;1.60;78.30;;;;;;5074383;28;20279;-74
2022/01/20 04:38:54;;;;;;;27.63;12.47;;;1.60;78.90;;;;;;5081331;28;20201;-74
2022/01/20 04:41:24;;;;;;;24.73;11.77;;;1.50;79.00;;;;;;5072017;28;20193;-73
2022/01/20 04:43:52;;;;;;;26.40;11.83;;;1.50;79.10;;;;;;5077678;28;20228;-74
2022/01/20 04:46:28;;;;;;;26.93;11.63;;;1.50;79.20;;;;;;5075279;28;20204;-73
2022/01/20 04:49:12;;;;;;;31.13;12.47;;;1.60;79.10;;;;;;5080834;28;20269;-73
2022/01/20 04:57:17;;;;;;;30.00;12.40;;;1.60;78.80;;;;;;5081067;28;20196;-73
2022/01/20 04:59:48;;;;;;;29.20;12.33;;;1.60;78.70;;;;;;5080986;28;20200;-73
2022/01/20 05:02:16;;;;;;;24.87;13.17;;;1.60;78.40;;;;;;5079252;28;20198;-74
2022/01/20 05:04:46;;;;;;;27.07;12.70;;;1.60;78.00;;;;;;5073074;28;20611;-75
2022/01/20 05:07:20;;;;;;;23.03;11.10;;;1.60;77.90;;;;;;5075040;28;20204;-74
2022/01/20 05:09:49;;;;;;;29.67;13.20;;;1.60;78.80;;;;;;5082303;28;20208;-73
2022/01/20 05:12:23;;;;;;;23.07;11.87;;;1.50;77.80;;;;;;5077849;28;20194;-74
2022/01/20 05:14:51;;;;;;;28.63;12.57;;;1.50;77.90;;;;;;5076857;28;20300;-74
2022/01/20 05:17:19;;;;;;;29.80;11.87;;;1.50;77.70;;;;;;5075470;28;20193;-73
2022/01/20 05:19:49;;;;;;;21.93;11.60;;;1.50;77.80;;;;;;5076310;28;20189;-73
2022/01/20 05:22:17;;;;;;;24.77;11.70;;;1.40;77.90;;;;;;5081803;28;20201;-73
2022/01/20 05:24:45;;;;;;;30.23;13.40;;;1.40;77.90;;;;;;5075321;28;20197;-74
2022/01/20 05:27:15;;;;;;;30.57;12.73;;;1.40;77.90;;;;;;5081879;28;20186;-74
2022/01/20 05:29:43;;;;;;;31.50;13.47;;;1.40;78.00;;;;;;5075671;28;20211;-73
2022/01/20 05:32:11;;;;;;;23.43;11.37;;;1.30;78.00;;;;;;5079578;28;20193;-74
2022/01/20 05:34:40;;;;;;;23.50;12.03;;;1.30;77.90;;;;;;5074836;28;20721;-73
2022/01/20 05:37:10;;;;;;;34.60;15.87;;;1.30;78.00;;;;;;5070601;28;20492;-74
2022/01/20 05:39:38;;;;;;;25.33;13.20;;;1.30;78.30;;;;;;5078311;28;20190;-74
2022/01/20 05:42:08;;;;;;;28.00;12.30;;;1.30;78.40;;;;;;5080684;28;20190;-73
2022/01/20 05:44:36;;;;;;;33.93;12.60;;;1.30;78.60;;;;;;5074000;28;20917;-74
2022/01/20 05:47:09;;;;;;;31.67;11.50;;;1.20;78.80;;;;;;5076570;28;20868;-73
2022/01/20 05:49:38;;;;;;;26.97;11.67;;;1.30;78.70;;;;;;5082259;28;20274;-74
2022/01/20 05:52:07;;;;;;;32.40;12.80;;;1.30;78.60;;;;;;5076447;28;20591;-74
2022/01/20 05:54:36;;;;;;;29.70;12.03;;;1.30;78.80;;;;;;5081404;28;20201;-74
2022/01/20 05:57:05;;;;;;;26.70;12.87;;;1.30;78.60;;;;;;5074863;28;20227;-74
2022/01/20 05:59:33;;;;;;;30.83;13.35;;;1.30;78.50;;;;;;5079234;28;20530;-74
2022/01/20 06:02:10;;;;;;;30.77;12.57;;;1.30;78.60;;;;;;5071969;28;20201;-75
2022/01/20 06:04:38;;;;;;;30.57;12.63;;;1.30;78.60;;;;;;5072947;28;20189;-74
2022/01/20 06:07:07;;;;;;;26.93;12.03;;;1.30;78.70;;;;;;5079343;28;20283;-74
2022/01/20 06:09:36;;;;;;;27.03;11.30;;;1.30;78.90;;;;;;5080551;28;20251;-74
2022/01/20 06:12:05;;;;;;;24.60;12.37;;;1.30;78.90;;;;;;5079071;28;20213;-74
2022/01/20 06:14:34;;;;;;;31.13;12.87;;;1.30;78.80;;;;;;5081475;28;20186;-74
2022/01/20 06:17:03;;;;;;;26.70;12.30;;;1.30;78.70;;;;;;5082483;28;20194;-74
2022/01/20 06:19:31;;;;;;;27.37;13.80;;;1.40;78.70;;;;;;5080032;28;20193;-74
2022/01/20 06:21:59;;;;;;;28.93;13.60;;;1.40;78.70;;;;;;5081081;28;20189;-74
2022/01/20 06:24:28;;;;;;;29.00;13.87;;;1.40;78.80;;;;;;5080762;28;20200;-74
2022/01/20 06:26:58;;;;;;;31.47;13.50;;;1.50;78.90;;;;;;5076347;28;20212;-74
2022/01/20 06:29:26;;;;;;;32.13;14.73;;;1.40;79.20;;;;;;5079884;28;20190;-74
2022/01/20 06:31:55;;;;;;;33.83;14.13;;;1.50;79.20;;;;;;5080499;28;20193;-74
2022/01/20 06:34:23;;;;;;;34.53;15.50;;;1.50;79.30;;;;;;5080858;28;20430;-74
2022/01/20 06:36:51;;;;;;;38.77;14.20;;;1.50;79.50;;;;;;5077554;28;20462;-74
2022/01/20 06:39:19;;;;;;;25.70;13.00;;;1.50;79.50;;;;;;5071452;28;20538;-75
2022/01/20 06:41:49;;;;;;;34.83;13.63;;;1.60;79.40;;;;;;5080633;28;20192;-75
2022/01/20 06:44:21;;;;;;;32.37;13.67;;;1.60;79.40;;;;;;5081291;28;20195;-75
2022/01/20 06:46:49;;;;;;;32.17;14.20;;;1.70;79.50;;;;;;5072705;28;20276;-75
2022/01/20 06:49:19;;;;;;;32.53;14.53;;;1.70;79.60;;;;;;5080925;28;20222;-75
2022/01/20 06:51:48;;;;;;;27.33;13.67;;;1.70;79.60;;;;;;5078292;28;20757;-75
2022/01/20 06:54:17;;;;;;;32.77;15.37;;;1.70;79.60;;;;;;5076728;28;20230;-75
2022/01/20 06:56:45;;;;;;;27.50;13.77;;;1.70;79.60;;;;;;5073123;28;20193;-75
2022/01/20 06:59:16;;;;;;;32.33;15.37;;;1.70;79.70;;;;;;5080652;28;20205;-75
2022/01/20 07:01:48;;;;;;;34.20;16.92;;;1.80;79.50;;;;;;5074199;28;20426;-75
2022/01/20 07:04:17;;;;;;;28.83;14.40;;;1.80;79.70;;;;;;5080033;28;20433;-75
2022/01/20 07:06:45;;;;;;;31.13;13.23;;;1.90;79.70;;;;;;5073352;28;20190;-74
2022/01/20 07:09:14;;;;;;;33.07;15.30;;;1.90;79.70;;;;;;5079700;28;20197;-74
2022/01/20 07:11:43;;;;;;;31.57;13.53;;;2.00;79.50;;;;;;5075550;28;20260;-74
2022/01/20 07:14:11;;;;;;;27.47;12.70;;;2.00;79.40;;;;;;5080322;28;20190;-75
2022/01/20 07:16:39;;;;;;;30.63;13.70;;;2.10;79.40;;;;;;5078316;28;20847;-75
2022/01/20 07:19:09;;;;;;;27.80;12.13;;;2.20;79.60;;;;;;5073974;28;20914;-75
2022/01/20 07:21:37;;;;;;;30.27;12.20;;;2.20;79.70;;;;;;5078152;28;20210;-75
2022/01/20 07:24:07;;;;;;;21.63;11.57;;;2.20;79.70;;;;;;5077861;28;20195;-75
2022/01/20 07:26:35;;;;;;;26.53;11.77;;;2.30;79.70;;;;;;5078934;28;20190;-75
2022/01/20 07:29:04;;;;;;;23.20;11.47;;;2.30;79.60;;;;;;5082612;28;20198;-76
2022/01/20 07:31:32;;;;;;;27.70;10.47;;;2.30;79.60;;;;;;5082220;28;20767;-75
2022/01/20 07:34:01;;;;;;;24.30;11.37;;;2.40;79.60;;;;;;5082316;28;20960;-75
2022/01/20 07:36:31;;;;;;;29.27;12.68;;;2.50;79.40;;;;;;5080488;28;20426;-76
2022/01/20 07:38:59;;;;;;;28.43;11.27;;;2.60;79.10;;;;;;5075896;28;20216;-75
2022/01/20 07:41:27;;;;;;;27.00;10.37;;;2.60;78.80;;;;;;5083978;28;20200;-76
2022/01/20 07:43:55;;;;;;;30.53;11.43;;;2.70;78.80;;;;;;5081308;28;20195;-75
2022/01/20 07:46:25;;;;;;;27.58;11.10;;;2.80;78.50;;;;;;5082636;28;20431;-75
2022/01/20 07:48:54;;;;;;;26.93;9.70;;;2.90;78.40;;;;;;5081993;28;20776;-74
2022/01/20 07:51:22;;;;;;;24.93;10.23;;;3.00;77.80;;;;;;5085818;28;20578;-74
2022/01/20 07:53:52;;;;;;;21.13;9.60;;;3.10;77.30;;;;;;5078162;28;20186;-74
2022/01/20 07:56:20;;;;;;;22.00;9.27;;;3.20;76.80;;;;;;5076920;28;20969;-75
2022/01/20 07:58:49;;;;;;;21.70;9.77;;;3.30;76.80;;;;;;5086190;28;20246;-74
2022/01/20 08:01:17;;;;;;;27.17;9.97;;;3.40;76.30;;;;;;5085553;28;20274;-75
2022/01/20 08:03:46;;;;;;;24.40;10.03;;;3.50;76.20;;;;;;5085056;28;20188;-74
2022/01/20 08:06:14;;;;;;;28.33;9.77;;;3.60;76.20;;;;;;5082080;28;20188;-76
2022/01/20 08:08:42;;;;;;;31.47;9.70;;;3.70;75.70;;;;;;5085276;28;20193;-75
2022/01/20 08:11:12;;;;;;;15.47;8.27;;;3.70;75.30;;;;;;5086168;28;20973;-75
2022/01/20 08:13:43;;;;;;;18.43;8.30;;;3.80;74.30;;;;;;5085155;28;20181;-74
2022/01/20 08:16:12;;;;;;;18.33;8.27;;;3.90;74.50;;;;;;5085197;28;20181;-75
2022/01/20 08:18:40;;;;;;;17.50;8.03;;;4.00;74.20;;;;;;5072053;28;20251;-74
2022/01/20 08:21:08;;;;;;;19.13;8.87;;;4.10;73.90;;;;;;5078748;28;20204;-76
2022/01/20 08:23:37;;;;;;;21.97;9.50;;;4.20;73.70;;;;;;5077177;28;20197;-75
2022/01/20 08:26:05;;;;;;;19.63;8.83;;;4.30;74.10;;;;;;5086762;28;20207;-75
2022/01/20 08:28:35;;;;;;;26.40;8.00;;;4.30;73.40;;;;;;5083846;28;20293;-75
2022/01/20 08:31:04;;;;;;;18.73;7.83;;;4.50;73.80;;;;;;5085607;28;20209;-74
2022/01/20 08:33:32;;;;;;;16.43;7.00;;;4.60;73.70;;;;;;5084689;28;20189;-74
2022/01/20 08:36:00;;;;;;;16.90;7.80;;;4.70;72.80;;;;;;5080648;28;20705;-75
2022/01/20 08:38:28;;;;;;;14.70;6.67;;;4.80;71.70;;;;;;5085119;28;20655;-75
2022/01/20 08:40:57;;;;;;;14.03;7.63;;;4.90;70.90;;;;;;5083190;28;20201;-74
2022/01/20 08:43:25;;;;;;;19.43;8.00;;;4.90;71.20;;;;;;5082817;28;20201;-75
2022/01/20 08:45:55;;;;;;;19.60;7.93;;;5.00;71.10;;;;;;5075841;28;20190;-74
2022/01/20 08:48:23;;;;;;;20.53;8.10;;;5.10;71.00;;;;;;5080128;28;20193;-75
2022/01/20 08:50:52;;;;;;;11.90;6.63;;;5.20;70.50;;;;;;5073816;28;20206;-76
2022/01/20 08:53:20;;;;;;;18.57;8.27;;;5.30;70.20;;;;;;5085439;28;21150;-75
2022/01/20 08:55:48;;;;;;;13.27;6.70;;;5.40;70.20;;;;;;5085704;28;20197;-76
2022/01/20 08:58:16;;;;;;;19.83;8.10;;;5.50;69.60;;;;;;5084231;28;20655;-74
2022/01/20 09:00:45;;;;;;;14.80;6.53;;;5.60;69.10;;;;;;5084423;28;20213;-74
2022/01/20 09:03:14;;;;;;;14.83;6.50;;;5.60;68.40;;;;;;5082856;28;20666;-75
2022/01/20 09:05:43;;;;;;;17.05;7.25;;;5.70;68.50;;;;;;5081057;28;20469;-77
2022/01/20 09:08:12;;;;;;;17.60;6.37;;;5.80;67.40;;;;;;5082817;28;20207;-77
2022/01/20 09:10:51;;;;;;;10.63;5.90;;;5.90;66.30;;;;;;5082498;28;20203;-76
2022/01/20 09:16:10;;;;;;;15.97;5.47;;;6.00;65.50;;;;;;5079152;28;20280;-76
2022/01/20 09:18:39;;;;;;;15.60;5.30;;;6.20;65.70;;;;;;5083799;28;20191;-76
2022/01/20 09:21:08;;;;;;;15.67;5.87;;;6.20;64.60;;;;;;5082011;28;20190;-75
2022/01/20 09:23:36;;;;;;;15.23;5.87;;;6.30;64.40;;;;;;5075498;28;20576;-76
2022/01/20 09:26:04;;;;;;;12.73;5.83;;;6.40;64.20;;;;;;5078549;28;20186;-77
2022/01/20 09:28:32;;;;;;;13.93;6.23;;;6.50;64.10;;;;;;5082109;28;20214;-75
2022/01/20 09:31:02;;;;;;;13.03;6.13;;;6.50;63.00;;;;;;5080930;28;20196;-77
2022/01/20 09:33:30;;;;;;;14.50;6.00;;;6.60;63.50;;;;;;5079530;28;20728;-76
2022/01/20 09:36:00;;;;;;;22.57;5.97;;;6.60;63.30;;;;;;5077340;28;20761;-75
2022/01/20 09:38:29;;;;;;;18.30;7.07;;;6.60;62.60;;;;;;5079944;28;20202;-77
2022/01/20 09:40:58;;;;;;;17.63;6.80;;;6.70;63.00;;;;;;5083589;28;20200;-75
2022/01/20 09:43:26;;;;;;;13.00;6.43;;;6.70;63.30;;;;;;5083487;28;20199;-77
2022/01/20 09:45:58;;;;;;;11.90;6.10;;;6.80;63.00;;;;;;5077342;28;20250;-75
2022/01/20 09:48:28;;;;;;;21.07;7.20;;;6.80;63.60;;;;;;5075979;28;20209;-76
2022/01/20 09:50:59;;;;;;;14.00;6.40;;;6.90;64.10;;;;;;5073642;28;20208;-76
2022/01/20 09:53:29;;;;;;;12.47;6.23;;;7.00;63.50;;;;;;5076534;28;20877;-75
2022/01/20 09:55:58;;;;;;;13.97;6.00;;;7.00;63.60;;;;;;5083521;28;20200;-75
2022/01/20 09:58:26;;;;;;;10.93;5.90;;;7.10;63.20;;;;;;5082014;28;20192;-74
2022/01/20 10:00:58;;;;;;;18.33;6.30;;;7.20;61.80;;;;;;5077767;28;20209;-76
2022/01/20 10:03:29;;;;;;;14.10;6.27;;;7.20;61.60;;;;;;5079564;28;20282;-76
2022/01/20 10:06:01;;;;;;;13.63;5.40;;;7.30;60.40;;;;;;5081828;28;20201;-75
2022/01/20 10:08:33;;;;;;;15.90;6.23;;;7.30;60.70;;;;;;5080708;28;20194;-76
2022/01/20 10:11:06;;;;;;;13.23;5.50;;;7.30;60.60;;;;;;5081504;28;20207;-75
2022/01/20 10:13:37;;;;;;;12.27;5.13;;;7.40;60.00;;;;;;5074320;28;20217;-76
2022/01/20 10:16:08;;;;;;;17.37;6.07;;;7.40;59.10;;;;;;5081079;28;20193;-75
2022/01/20 10:18:50;;;;;;;17.07;6.20;;;7.50;59.20;;;;;;5081822;28;20194;-76
2022/01/20 10:21:27;;;;;;;14.40;5.13;;;7.50;58.90;;;;;;5081504;28;20200;-74
2022/01/20 10:24:05;;;;;;;10.33;5.03;;;7.50;59.10;;;;;;5078135;28;20693;-75
2022/01/20 10:26:33;;;;;;;16.77;7.20;;;7.50;59.20;;;;;;5081022;28;20278;-76
2022/01/20 10:29:05;;;;;;;11.97;5.30;;;7.50;59.10;;;;;;5081759;28;20204;-75
2022/01/20 10:31:37;;;;;;;14.07;5.82;;;7.60;59.80;;;;;;5072797;28;20517;-74
2022/01/20 10:34:08;;;;;;;13.07;6.43;;;7.70;58.60;;;;;;5080294;28;20631;-74
2022/01/20 10:36:50;;;;;;;18.53;6.13;;;7.70;58.60;;;;;;5080339;28;20222;-76
2022/01/20 10:39:27;;;;;;;20.00;5.57;;;7.80;58.50;;;;;;5076543;28;20216;-76
2022/01/20 10:41:59;;;;;;;18.90;6.90;;;7.80;58.20;;;;;;5079051;28;20737;-75
2022/01/20 10:44:28;;;;;;;12.90;5.53;;;7.90;57.80;;;;;;5078046;28;20231;-76
2022/01/20 10:47:18;;;;;;;13.73;5.83;;;7.90;57.50;;;;;;5081664;28;20189;-76
2022/01/20 10:49:47;;;;;;;13.17;6.13;;;8.00;57.60;;;;;;5082301;28;20201;-76
2022/01/20 10:52:20;;;;;;;16.37;5.97;;;8.10;57.70;;;;;;5075014;28;20205;-75
2022/01/20 10:54:53;;;;;;;10.30;5.70;;;8.10;57.20;;;;;;5079293;28;20231;-79
2022/01/20 10:57:27;;;;;;;19.37;5.97;;;8.20;57.20;;;;;;5073372;28;20186;-76
2022/01/20 10:59:57;;;;;;;14.13;6.27;;;8.30;57.10;;;;;;5081974;28;20753;-79
2022/01/20 11:02:29;;;;;;;37.50;6.00;;;8.30;57.30;;;;;;5080750;28;20197;-80
2022/01/20 11:04:58;;;;;;;12.43;5.20;;;8.40;57.30;;;;;;5083347;28;20190;-81
2022/01/20 11:07:28;;;;;;;13.93;5.40;;;8.40;57.10;;;;;;5082200;28;20196;-81
2022/01/20 11:10:02;;;;;;;14.60;5.00;;;8.50;56.60;;;;;;5082258;28;20197;-81
2022/01/20 11:12:31;;;;;;;14.20;5.80;;;8.50;56.90;;;;;;5081626;28;20282;-79
2022/01/20 11:15:08;;;;;;;15.00;5.20;;;8.60;56.70;;;;;;5082388;28;20190;-78
2022/01/20 11:17:40;;;;;;;13.27;5.70;;;8.60;56.80;;;;;;5083162;28;20189;-78
2022/01/20 11:20:11;;;;;;;22.93;5.67;;;8.70;56.80;;;;;;5086056;28;20204;-80
2022/01/20 11:22:50;;;;;;;15.10;5.93;;;8.80;56.70;;;;;;5086352;28;20185;-78
2022/01/20 11:25:22;;;;;;;12.63;5.93;;;8.80;57.40;;;;;;5077848;28;20201;-79
2022/01/20 11:27:53;;;;;;;19.10;5.90;;;8.90;57.10;;;;;;5084031;28;20309;-75
2022/01/20 11:30:24;;;;;;;18.55;6.65;;;8.90;56.00;;;;;;5084365;28;20433;-75
2022/01/20 11:32:59;;;;;;;24.23;7.10;;;9.00;56.10;;;;;;5083881;28;20209;-74
2022/01/20 11:35:44;;;;;;;16.23;6.03;;;9.10;55.70;;;;;;5082600;28;20820;-75
2022/01/20 11:38:15;;;;;;;13.53;6.20;;;9.20;55.90;;;;;;5077597;28;20421;-74
2022/01/20 11:41:00;;;;;;;11.97;6.13;;;9.20;55.70;;;;;;5085374;28;20190;-73
2022/01/20 11:43:36;;;;;;;16.63;7.50;;;9.20;56.20;;;;;;5083920;28;20193;-76
2022/01/20 11:46:13;;;;;;;14.93;6.07;;;9.30;55.90;;;;;;5075600;28;20200;-75
2022/01/20 11:48:55;;;;;;;12.57;6.53;;;9.30;55.50;;;;;;5080505;28;20196;-75
2022/01/20 11:51:25;;;;;;;12.93;5.83;;;9.30;55.90;;;;;;5083427;28;20201;-74
2022/01/20 11:54:16;;;;;;;17.13;6.30;;;9.40;55.90;;;;;;5085180;28;20279;-75
2022/01/20 11:56:46;;;;;;;16.77;7.07;;;9.40;55.70;;;;;;5084790;28;20703;-75
2022/01/20 11:59:16;;;;;;;19.77;5.73;;;9.50;55.20;;;;;;5080409;28;20193;-74
2022/01/20 12:01:47;;;;;;;20.37;7.53;;;9.50;55.30;;;;;;5080973;28;20185;-74
2022/01/20 12:04:16;;;;;;;16.80;6.07;;;9.50;56.00;;;;;;5083166;28;20196;-74
2022/01/20 12:06:47;;;;;;;13.93;6.03;;;9.60;55.80;;;;;;5077337;28;20277;-74
2022/01/20 12:09:29;;;;;;;14.07;6.30;;;9.60;55.50;;;;;;5084280;28;20196;-75
2022/01/20 12:11:59;;;;;;;15.07;6.57;;;9.70;55.60;;;;;;5081122;28;20189;-75
2022/01/20 12:14:35;;;;;;;12.73;5.60;;;9.70;55.90;;;;;;5086755;28;20264;-74
2022/01/20 12:17:06;;;;;;;15.40;6.37;;;9.80;55.40;;;;;;5085239;28;20655;-74
2022/01/20 12:19:36;;;;;;;16.33;5.73;;;9.80;55.30;;;;;;5086031;28;20178;-73
2022/01/20 12:22:08;;;;;;;10.23;5.10;;;9.80;55.50;;;;;;5086193;28;20816;-73
2022/01/20 12:24:37;;;;;;;13.03;6.10;;;9.90;55.50;;;;;;5084969;28;20194;-75
2022/01/20 12:27:17;;;;;;;12.30;6.17;;;9.90;55.70;;;;;;5083017;28;20182;-73
2022/01/20 12:29:45;;;;;;;14.37;6.07;;;10.00;54.80;;;;;;5079247;28;20186;-74
2022/01/20 12:32:16;;;;;;;11.73;5.30;;;10.00;54.90;;;;;;5083676;28;20623;-73
2022/01/20 12:34:45;;;;;;;11.67;5.33;;;10.10;54.80;;;;;;5083878;28;20210;-73
2022/01/20 12:37:13;;;;;;;13.03;4.53;;;10.20;54.90;;;;;;5065578;28;20195;-73
2022/01/20 12:39:42;;;;;;;9.77;4.53;;;10.30;55.20;;;;;;5064329;28;20244;-74
2022/01/20 12:42:12;;;;;;;10.63;5.00;;;10.30;55.00;;;;;;5056492;28;20199;-74
2022/01/20 12:44:48;;;;;;;12.53;4.53;;;10.40;54.50;;;;;;5062422;28;20841;-73
2022/01/20 12:47:27;;;;;;;9.27;4.43;;;10.40;54.50;;;;;;5062191;28;20187;-73
2022/01/20 12:49:56;;;;;;;12.13;4.73;;;10.50;54.80;;;;;;5062829;28;20635;-73
2022/01/20 12:52:24;;;;;;;15.03;4.23;;;10.50;54.70;;;;;;5063060;28;20252;-75
2022/01/20 12:54:53;;;;;;;12.00;3.93;;;10.60;54.80;;;;;;5059197;28;20223;-74
2022/01/20 12:57:22;;;;;;;13.23;4.63;;;10.70;54.50;;;;;;5063990;28;20617;-74
2022/01/20 12:59:54;;;;;;;11.43;4.37;;;10.70;54.90;;;;;;5061901;28;20182;-73
2022/01/20 13:02:24;;;;;;;9.80;3.67;;;10.80;54.30;;;;;;5063737;28;20471;-74
2022/01/20 13:04:57;;;;;;;10.03;3.53;;;10.90;54.40;;;;;;5065200;28;20199;-73
2022/01/20 13:07:26;;;;;;;11.60;3.83;;;10.90;54.20;;;;;;5064449;28;20183;-74
2022/01/20 13:10:02;;;;;;;8.73;3.90;;;11.00;54.10;;;;;;5064992;28;20199;-75
2022/01/20 13:12:38;;;;;;;14.07;3.67;;;11.10;54.10;;;;;;5065771;28;20185;-73
2022/01/20 13:15:19;;;;;;;9.90;3.60;;;11.30;54.10;;;;;;5065677;28;20206;-74
2022/01/20 13:17:49;;;;;;;15.40;4.23;;;11.50;53.60;;;;;;5065193;28;20178;-75
2022/01/20 13:20:20;;;;;;;11.97;4.20;;;11.70;53.60;;;;;;5064909;28;20549;-75
2022/01/20 13:22:59;;;;;;;6.23;3.53;;;12.00;53.80;;;;;;5062341;28;20191;-74
2022/01/20 13:25:29;;;;;;;10.17;3.93;;;12.20;52.10;;;;;;5054595;28;20190;-75
2022/01/20 13:28:00;;;;;;;11.47;3.80;;;12.60;52.30;;;;;;5054993;28;20705;-74
2022/01/20 13:30:31;;;;;;;17.00;3.60;;;13.00;51.30;;;;;;5062594;28;20182;-73
2022/01/20 13:33:00;;;;;;;7.50;3.47;;;13.90;51.00;;;;;;5061449;28;20654;-73
2022/01/20 13:35:39;;;;;;;20.48;4.95;;;14.70;50.20;;;;;;5063658;28;20225;-73
2022/01/20 13:38:08;;;;;;;9.95;3.58;;;15.50;46.60;;;;;;5082841;28;20197;-73
2022/01/20 13:40:38;;;;;;;9.10;3.53;;;16.20;44.10;;;;;;5075544;28;20186;-74
2022/01/20 13:45:56;;;;;;;16.40;3.42;;;18.70;40.70;;;;;;5080586;28;20189;-73
2022/01/20 13:48:29;;;;;;;9.60;4.00;;;20.70;35.80;;;;;;5070092;28;20196;-74